Hauptseite
METAR-TAF:

METAR-TAF

Flughäfen :

Heeresflugplatz Altenstadt

Altenstadt, Deutschland

Breite: 47-50N, Länge: 010-52E, Höhe: 739 m

Beobachtung

Neuester Wetterbericht von vor 35 Minuten, um 19:20 UTC
Wind 10 kt aus West/Südwest
Temperatur 11°C
Luftfeuchtigkeit 94%
Luftdruck 1008 hPa
Sichtweite 10 km oder mehr

METAR: ETHA 301920Z AUTO 25010KT 9999 // ////// 11/10 Q1008 ///

Zeit: 21:55 (19:55 UTC)

Prognose

Neuester Wetterbericht von vor 30 Stunden und 35 Minuten, um 13:20 UTC
Gültige Prognose vom 29 um 14 UTC bis 29 um 23 UTC
Wind 10 kt aus West
Sichtweite 10 km oder mehr
Leicht bewölkt in der Höhe von 5000 ft
Durchbrochene Bewölkung in der Höhe von 10000 ft
Durchbrochene Bewölkung in der Höhe von 20000 ft

TAF: ETHA 291320Z 2914/2923 27010KT 9999 NSW FEW050 BKN100 BKN200

Wetterbeobachtungen und Prognosen von mehr als 4000 Flughäfen (METAR und TAF Bericht).

Die verfügbaren Stationen werden durch gelbe und rote Markierungen auf der Karte dargestellt.

Führen Sie die Maus auf sie, um den Namen der Station zu sehen.

Darauf klicken, um die Beobachtung von Wetterbeobachtungen und Prognosen zu sehen.

Um die Karte zu ändern : klicken Sie auf den grünen Tasten mit einem schwarzen Kreuz Zum Vergrößern, auf den grünen Button mit einem Gedankenstrich zu verkleinern, oder auf die grünen Pfeile für benachbarte Karten.


METAR-TAF: